Time;durP1;ratioP1;P1;durP2;ratioP2;P2;SDS_P1;SDS_P2;PMS_P1;PMS_P2;Temp;Humidity;BMP_temperature;BMP_pressure;BME280_temperature;BME280_humidity;BME280_pressure;Samples;Min_cycle;Max_cycle;Signal;HPM_P1;HPM_P2
2023/05/12 00:02:16;;;;;;;22.03;17.23;;;14.60;99.90;;;;;;5060337;28;20457;-82
2023/05/12 00:04:43;;;;;;;28.70;15.70;;;14.50;99.90;;;;;;5051014;28;20452;-83
2023/05/12 00:07:11;;;;;;;23.50;18.10;;;14.50;99.90;;;;;;5059374;28;20523;-82
2023/05/12 00:09:40;;;;;;;24.97;17.97;;;14.50;99.90;;;;;;5063947;28;20481;-81
2023/05/12 00:12:07;;;;;;;27.03;17.93;;;14.50;99.90;;;;;;5052521;28;20457;-80
2023/05/12 00:14:35;;;;;;;22.60;16.90;;;14.50;99.90;;;;;;5052270;28;20490;-80
2023/05/12 00:17:02;;;;;;;24.30;19.40;;;14.60;99.90;;;;;;5042178;28;20478;-80
2023/05/12 00:19:29;;;;;;;25.37;18.67;;;14.50;99.90;;;;;;5037788;28;20453;-81
2023/05/12 00:21:56;;;;;;;25.83;19.13;;;14.60;99.90;;;;;;5042779;28;20972;-82
2023/05/12 00:24:24;;;;;;;27.50;19.83;;;14.50;99.90;;;;;;5037873;28;20448;-81
2023/05/12 00:26:51;;;;;;;26.60;21.00;;;14.50;99.90;;;;;;5048763;28;20450;-82
2023/05/12 00:29:18;;;;;;;26.30;19.03;;;14.60;99.90;;;;;;5040225;28;20535;-81
2023/05/12 00:31:45;;;;;;;25.23;18.77;;;14.60;99.90;;;;;;5067398;28;20523;-80
2023/05/12 00:34:12;;;;;;;33.60;23.00;;;14.60;99.90;;;;;;5048546;28;20567;-81
2023/05/12 00:36:39;;;;;;;27.80;21.20;;;14.60;99.90;;;;;;5054130;28;20515;-80
2023/05/12 00:39:06;;;;;;;27.43;20.40;;;14.60;99.90;;;;;;5049003;28;20518;-81
2023/05/12 00:41:34;;;;;;;28.70;22.53;;;14.60;99.90;;;;;;5043811;28;20540;-82
2023/05/12 00:44:01;;;;;;;25.13;20.70;;;14.50;99.90;;;;;;5037891;28;20460;-82
2023/05/12 00:46:28;;;;;;;30.50;22.37;;;14.40;99.90;;;;;;5038961;28;20450;-80
2023/05/12 00:48:54;;;;;;;27.93;20.07;;;14.40;99.90;;;;;;5023679;28;20474;-81
2023/05/12 00:51:22;;;;;;;26.17;19.77;;;14.30;99.90;;;;;;5040318;28;20520;-82
2023/05/12 00:53:49;;;;;;;26.13;20.10;;;14.30;99.90;;;;;;5028362;28;20465;-82
2023/05/12 00:56:17;;;;;;;25.27;19.50;;;14.40;99.90;;;;;;5037004;28;20550;-82
2023/05/12 00:58:45;;;;;;;26.10;19.03;;;14.40;99.90;;;;;;5076016;22;20537;-81
2023/05/12 01:01:12;;;;;;;21.87;17.77;;;14.40;99.90;;;;;;5044031;28;20456;-81
2023/05/12 01:03:39;;;;;;;20.77;17.33;;;14.40;99.90;;;;;;5055001;28;20452;-80
2023/05/12 01:06:12;;;;;;;28.83;19.57;;;14.40;99.90;;;;;;5053703;28;20448;-78
2023/05/12 01:08:41;;;;;;;20.20;16.83;;;14.30;99.90;;;;;;5037427;28;20474;-78
2023/05/12 01:11:07;;;;;;;23.60;16.40;;;14.30;99.90;;;;;;5054522;28;20457;-79
2023/05/12 01:13:34;;;;;;;21.43;16.13;;;14.30;99.90;;;;;;5050900;28;20457;-79
2023/05/12 01:16:04;;;;;;;23.60;16.30;;;14.30;99.90;;;;;;5054781;28;20538;-79
2023/05/12 01:18:34;;;;;;;18.50;16.10;;;14.30;99.90;;;;;;5052772;28;20829;-81
2023/05/12 01:21:01;;;;;;;20.33;13.70;;;14.30;99.90;;;;;;5054738;28;20471;-80
2023/05/12 01:23:35;;;;;;;21.70;15.13;;;14.30;99.90;;;;;;5052504;28;20464;-81
2023/05/12 01:26:06;;;;;;;17.90;12.80;;;14.30;99.90;;;;;;5034825;28;20448;-80
2023/05/12 01:28:34;;;;;;;17.17;13.80;;;14.20;99.90;;;;;;5035713;28;20467;-81
2023/05/12 01:31:01;;;;;;;16.83;12.40;;;14.20;99.90;;;;;;5052706;28;20459;-79
2023/05/12 01:33:28;;;;;;;15.77;12.70;;;14.20;99.90;;;;;;5054195;28;20455;-80
2023/05/12 01:35:55;;;;;;;15.00;11.40;;;14.10;99.90;;;;;;5060648;28;20487;-81
2023/05/12 01:38:22;;;;;;;18.40;13.80;;;14.10;99.90;;;;;;5074112;28;20470;-80
2023/05/12 01:40:49;;;;;;;13.63;11.80;;;14.10;99.90;;;;;;5051873;28;21031;-80
2023/05/12 01:43:17;;;;;;;13.90;10.80;;;14.10;99.90;;;;;;5054683;28;20478;-80
2023/05/12 01:45:44;;;;;;;14.20;11.10;;;14.00;99.90;;;;;;5054644;28;20450;-80
2023/05/12 01:48:11;;;;;;;16.13;11.43;;;14.00;99.90;;;;;;5056381;28;20482;-79
2023/05/12 01:50:37;;;;;;;13.20;9.63;;;13.90;99.90;;;;;;5055146;28;20995;-78
2023/05/12 01:53:04;;;;;;;16.77;10.43;;;13.90;99.90;;;;;;5051293;28;20807;-79
2023/05/12 01:55:31;;;;;;;13.37;9.80;;;13.90;99.90;;;;;;5056970;28;21031;-79
2023/05/12 01:57:58;;;;;;;15.27;10.57;;;13.90;99.90;;;;;;5058801;28;20485;-80
2023/05/12 02:00:26;;;;;;;16.53;10.90;;;14.00;99.90;;;;;;5055979;28;20496;-79
2023/05/12 02:02:53;;;;;;;13.63;8.97;;;14.00;99.90;;;;;;5058139;28;20474;-80
2023/05/12 02:05:21;;;;;;;12.07;8.40;;;14.00;99.90;;;;;;5053919;28;20461;-79
2023/05/12 02:07:48;;;;;;;11.23;6.90;;;14.00;99.90;;;;;;5058332;28;20896;-78
2023/05/12 02:10:14;;;;;;;8.07;6.50;;;14.00;99.90;;;;;;5059349;28;20458;-78
2023/05/12 02:12:41;;;;;;;14.50;8.03;;;13.90;99.90;;;;;;5073976;28;21032;-79
2023/05/12 02:15:09;;;;;;;8.77;7.00;;;13.90;99.90;;;;;;5057374;28;20857;-77
2023/05/12 02:17:37;;;;;;;9.57;7.07;;;13.90;99.90;;;;;;5077005;28;20443;-78
2023/05/12 02:20:05;;;;;;;11.60;7.83;;;13.90;99.90;;;;;;5069750;28;20451;-78
2023/05/12 02:22:31;;;;;;;10.47;7.53;;;13.80;99.90;;;;;;5052714;28;20437;-79
2023/05/12 02:24:58;;;;;;;10.37;7.63;;;13.80;99.90;;;;;;5056824;28;20849;-78
2023/05/12 02:27:25;;;;;;;11.00;7.73;;;13.80;99.90;;;;;;5062065;28;20809;-78
2023/05/12 02:29:52;;;;;;;10.20;7.03;;;13.70;99.90;;;;;;5071990;28;20457;-77
2023/05/12 02:32:20;;;;;;;13.97;8.60;;;13.70;99.90;;;;;;5055382;28;20470;-79
2023/05/12 02:34:49;;;;;;;12.50;9.20;;;13.70;99.90;;;;;;5056525;28;20487;-79
2023/05/12 02:37:15;;;;;;;13.03;8.90;;;13.70;99.90;;;;;;5057478;28;20449;-78
2023/05/12 02:39:42;;;;;;;12.27;9.57;;;13.70;99.90;;;;;;5053186;28;20478;-79
2023/05/12 02:42:09;;;;;;;17.80;11.47;;;13.70;99.90;;;;;;5057017;28;20967;-79
2023/05/12 02:44:36;;;;;;;14.00;10.20;;;13.70;99.90;;;;;;5054422;28;20963;-79
2023/05/12 02:47:03;;;;;;;12.97;9.43;;;13.70;99.90;;;;;;5057157;28;20458;-79
2023/05/12 02:49:31;;;;;;;12.90;10.73;;;13.70;99.90;;;;;;5055115;28;20470;-78
2023/05/12 02:51:59;;;;;;;15.83;11.33;;;13.80;99.90;;;;;;5062759;28;20978;-79
2023/05/12 02:54:26;;;;;;;13.90;11.37;;;13.80;99.90;;;;;;5048427;28;20460;-79
2023/05/12 02:56:53;;;;;;;13.43;9.60;;;13.80;99.90;;;;;;5069375;28;20466;-77
2023/05/12 02:59:20;;;;;;;14.93;10.33;;;13.80;99.90;;;;;;5059900;28;20568;-78
2023/05/12 03:01:47;;;;;;;13.30;11.07;;;13.80;99.90;;;;;;5054947;28;20502;-78
2023/05/12 03:04:13;;;;;;;15.87;12.47;;;13.80;99.90;;;;;;5056946;28;20976;-79
2023/05/12 03:06:40;;;;;;;16.20;11.87;;;13.80;99.90;;;;;;5054351;28;21190;-79
2023/05/12 03:09:08;;;;;;;16.43;12.07;;;13.80;99.90;;;;;;5057611;28;20499;-79
2023/05/12 03:11:35;;;;;;;17.43;12.80;;;13.80;99.90;;;;;;5057322;28;20467;-78
2023/05/12 03:14:02;;;;;;;19.83;13.30;;;13.80;99.90;;;;;;5070860;28;20921;-78
2023/05/12 03:16:29;;;;;;;18.70;12.87;;;13.80;99.90;;;;;;5065099;28;20480;-78
2023/05/12 03:18:55;;;;;;;16.77;12.60;;;13.80;99.90;;;;;;5054973;28;20478;-78
2023/05/12 03:21:22;;;;;;;18.10;13.73;;;13.80;99.90;;;;;;5056827;28;20449;-80
2023/05/12 03:23:49;;;;;;;18.60;13.80;;;13.80;99.90;;;;;;5054976;28;20457;-78
2023/05/12 03:26:18;;;;;;;17.33;12.43;;;13.70;99.90;;;;;;5058164;28;20444;-79
2023/05/12 03:28:45;;;;;;;16.00;12.67;;;13.70;99.90;;;;;;5057407;28;20479;-79
2023/05/12 03:31:11;;;;;;;20.10;13.10;;;13.70;99.90;;;;;;5054098;28;20463;-79
2023/05/12 03:33:38;;;;;;;15.30;11.93;;;13.60;99.90;;;;;;5056821;28;20825;-77
2023/05/12 03:36:05;;;;;;;16.13;12.17;;;13.60;99.90;;;;;;5058763;28;20580;-79
2023/05/12 03:38:32;;;;;;;16.90;11.80;;;13.60;99.90;;;;;;5057084;28;20507;-78
2023/05/12 03:41:06;;;;;;;14.33;11.57;;;13.60;99.90;;;;;;5054035;28;20458;-79
2023/05/12 03:43:34;;;;;;;14.10;10.67;;;13.60;99.90;;;;;;5056251;28;20450;-78
2023/05/12 03:46:01;;;;;;;14.07;10.10;;;13.60;99.90;;;;;;5055984;28;20458;-78
2023/05/12 03:48:28;;;;;;;15.87;10.50;;;13.50;99.90;;;;;;5076793;28;20987;-78
2023/05/12 03:50:55;;;;;;;13.10;10.63;;;13.50;99.90;;;;;;5070238;28;20956;-79
2023/05/12 03:53:21;;;;;;;11.53;8.97;;;13.50;99.90;;;;;;5054737;28;20838;-80
2023/05/12 03:55:48;;;;;;;11.40;8.30;;;13.50;99.90;;;;;;5056418;28;20484;-79
2023/05/12 03:58:15;;;;;;;14.47;10.27;;;13.50;99.90;;;;;;5054480;28;20485;-79
2023/05/12 04:00:43;;;;;;;12.03;9.47;;;13.50;99.90;;;;;;5056158;28;20455;-79
2023/05/12 04:03:10;;;;;;;11.83;9.73;;;13.50;99.90;;;;;;5047116;28;20461;-79
2023/05/12 04:05:38;;;;;;;13.50;9.80;;;13.50;99.90;;;;;;5048393;28;20462;-78
2023/05/12 04:08:05;;;;;;;11.40;9.33;;;13.50;99.90;;;;;;5051397;28;20485;-79
2023/05/12 04:10:32;;;;;;;9.83;8.17;;;13.50;99.90;;;;;;5048465;28;20465;-78
2023/05/12 04:12:58;;;;;;;10.23;8.77;;;13.50;99.90;;;;;;5050509;28;20460;-79
2023/05/12 04:15:25;;;;;;;10.63;8.60;;;13.50;99.90;;;;;;5047575;28;20495;-79
2023/05/12 04:17:53;;;;;;;11.50;8.70;;;13.40;99.90;;;;;;5056297;28;20473;-79
2023/05/12 04:20:21;;;;;;;12.27;9.80;;;13.50;99.90;;;;;;5053952;28;20497;-79
2023/05/12 04:22:47;;;;;;;11.90;9.27;;;13.40;99.90;;;;;;5047246;28;20854;-80
2023/05/12 04:25:14;;;;;;;9.90;8.47;;;13.40;99.90;;;;;;5052352;28;20466;-79
2023/05/12 04:27:41;;;;;;;14.40;9.40;;;13.50;99.90;;;;;;5054537;28;20460;-80
2023/05/12 04:30:09;;;;;;;10.10;8.30;;;13.50;99.90;;;;;;5055766;28;20452;-80
2023/05/12 04:32:36;;;;;;;14.57;9.47;;;13.50;99.90;;;;;;5044977;28;20458;-80
2023/05/12 04:35:04;;;;;;;9.57;7.70;;;13.50;99.90;;;;;;5055069;28;20522;-80
2023/05/12 04:37:31;;;;;;;11.43;8.33;;;13.50;99.90;;;;;;5046716;28;20441;-81
2023/05/12 04:39:58;;;;;;;8.47;7.67;;;13.50;99.90;;;;;;5055687;28;20469;-82
2023/05/12 04:42:24;;;;;;;10.17;8.30;;;13.50;99.90;;;;;;5054274;28;20463;-80
2023/05/12 04:44:51;;;;;;;10.13;7.10;;;13.60;99.90;;;;;;5054837;28;20457;-82
2023/05/12 04:47:18;;;;;;;9.07;7.00;;;13.60;99.90;;;;;;5054444;28;20456;-82
2023/05/12 04:49:45;;;;;;;8.73;7.30;;;13.60;99.90;;;;;;5046189;28;20528;-81
2023/05/12 04:52:13;;;;;;;7.93;6.80;;;13.70;99.90;;;;;;5053523;28;20467;-80
2023/05/12 04:54:40;;;;;;;8.60;7.00;;;13.80;99.90;;;;;;5043612;28;20496;-79
2023/05/12 04:57:07;;;;;;;6.80;6.20;;;13.80;99.90;;;;;;5049461;28;20496;-80
2023/05/12 04:59:34;;;;;;;7.97;6.10;;;13.80;99.90;;;;;;5063588;28;20555;-79
2023/05/12 05:02:01;;;;;;;5.83;5.23;;;13.90;99.90;;;;;;5047432;28;20510;-79
2023/05/12 05:04:28;;;;;;;8.63;6.33;;;14.00;99.90;;;;;;5058736;28;20449;-79
2023/05/12 05:06:55;;;;;;;8.27;6.20;;;14.00;99.90;;;;;;5057436;28;20456;-79
2023/05/12 05:09:23;;;;;;;6.50;5.90;;;14.20;99.90;;;;;;5050937;28;20851;-79
2023/05/12 05:11:50;;;;;;;7.70;7.00;;;14.20;99.90;;;;;;5055680;28;20508;-78
2023/05/12 05:14:17;;;;;;;8.57;5.03;;;14.10;99.90;;;;;;5063736;28;20948;-80
2023/05/12 05:16:44;;;;;;;5.70;5.10;;;14.20;99.90;;;;;;5055476;28;20491;-80
2023/05/12 05:19:12;;;;;;;5.63;4.60;;;14.30;99.90;;;;;;5054120;28;20468;-80
2023/05/12 05:21:38;;;;;;;5.90;5.40;;;14.40;99.90;;;;;;5049453;28;20991;-79
2023/05/12 05:24:06;;;;;;;5.60;4.37;;;14.50;99.90;;;;;;5053076;28;20447;-78
2023/05/12 05:26:34;;;;;;;5.63;4.23;;;14.50;99.90;;;;;;5056319;28;20456;-79
2023/05/12 05:29:01;;;;;;;5.30;4.33;;;14.70;99.90;;;;;;5057754;28;20554;-80
2023/05/12 05:31:28;;;;;;;5.30;4.70;;;14.70;99.90;;;;;;5068212;28;20469;-79
2023/05/12 05:33:55;;;;;;;6.00;4.80;;;14.80;99.90;;;;;;5065331;28;20460;-79
2023/05/12 05:36:23;;;;;;;5.47;4.97;;;14.90;99.90;;;;;;5064397;28;20495;-79
2023/05/12 05:38:50;;;;;;;5.50;4.70;;;14.90;99.90;;;;;;5056691;28;20479;-78
2023/05/12 05:41:17;;;;;;;5.87;5.27;;;14.90;99.90;;;;;;5053552;28;20454;-79
2023/05/12 05:43:45;;;;;;;5.17;4.67;;;15.00;99.90;;;;;;5055276;28;21198;-79
2023/05/12 05:46:11;;;;;;;5.93;5.20;;;15.10;99.90;;;;;;5059951;28;20446;-80
2023/05/12 05:48:38;;;;;;;6.40;5.43;;;15.00;99.90;;;;;;5057663;28;20477;-79
2023/05/12 05:51:05;;;;;;;6.40;5.43;;;15.00;99.90;;;;;;5053909;28;22538;-80
2023/05/12 05:53:32;;;;;;;5.40;4.90;;;15.00;99.90;;;;;;5058970;28;20459;-79
2023/05/12 05:56:01;;;;;;;6.27;5.37;;;15.00;99.90;;;;;;5058414;28;20481;-79
2023/05/12 05:58:28;;;;;;;5.63;5.03;;;15.10;99.90;;;;;;5059274;28;20580;-82
2023/05/12 06:00:56;;;;;;;6.63;6.03;;;15.10;99.90;;;;;;5054685;28;20547;-81
2023/05/12 06:03:23;;;;;;;5.83;5.30;;;15.20;99.90;;;;;;5057079;28;20470;-81
2023/05/12 06:05:50;;;;;;;6.03;5.43;;;15.30;99.90;;;;;;5052589;28;20448;-80
2023/05/12 06:08:17;;;;;;;6.20;5.37;;;15.30;99.90;;;;;;5056277;28;20477;-80
2023/05/12 06:10:44;;;;;;;6.10;5.50;;;15.40;99.90;;;;;;5061545;28;20852;-82
2023/05/12 06:13:10;;;;;;;5.27;4.77;;;15.60;99.90;;;;;;5063287;28;20456;-80
2023/05/12 06:15:37;;;;;;;8.30;5.67;;;15.80;99.90;;;;;;5068882;28;20460;-78
2023/05/12 06:18:06;;;;;;;11.90;6.70;;;15.90;99.90;;;;;;5059189;28;20482;-81
2023/05/12 06:20:32;;;;;;;6.57;5.80;;;16.00;99.90;;;;;;5059392;28;20458;-80
2023/05/12 06:22:59;;;;;;;7.03;6.10;;;16.10;99.90;;;;;;5061164;28;20459;-81
2023/05/12 06:25:26;;;;;;;8.40;6.43;;;16.00;99.90;;;;;;5056828;28;20468;-81
2023/05/12 06:27:53;;;;;;;8.60;5.10;;;15.90;99.90;;;;;;5064360;28;20547;-81
2023/05/12 06:30:20;;;;;;;9.50;5.60;;;16.00;99.90;;;;;;5059694;28;20456;-81
2023/05/12 06:32:47;;;;;;;7.70;6.10;;;16.00;99.90;;;;;;5056513;28;20474;-80
2023/05/12 06:35:15;;;;;;;5.90;5.30;;;16.00;99.90;;;;;;5058253;28;20458;-81
2023/05/12 06:37:43;;;;;;;4.97;4.50;;;16.00;99.90;;;;;;5048003;28;20472;-82
2023/05/12 06:40:10;;;;;;;6.40;5.80;;;16.00;99.90;;;;;;5066636;28;20505;-82
2023/05/12 06:42:37;;;;;;;5.47;4.13;;;16.10;99.90;;;;;;5056881;28;20455;-79
2023/05/12 06:45:05;;;;;;;12.23;5.53;;;16.20;99.90;;;;;;5057518;28;20477;-82
2023/05/12 06:47:32;;;;;;;5.00;4.50;;;16.20;99.90;;;;;;5058287;28;20854;-80
2023/05/12 06:49:58;;;;;;;5.47;4.90;;;16.00;99.90;;;;;;5058768;28;20477;-82
2023/05/12 06:52:26;;;;;;;7.50;4.73;;;15.90;99.90;;;;;;5059375;28;20462;-79
2023/05/12 06:54:53;;;;;;;6.57;4.67;;;15.90;99.90;;;;;;5058304;28;20458;-82
2023/05/12 06:57:20;;;;;;;4.23;3.27;;;15.90;99.90;;;;;;5056333;28;20487;-79
2023/05/12 06:59:47;;;;;;;5.67;4.67;;;16.00;99.90;;;;;;5057480;28;20486;-79
2023/05/12 07:02:16;;;;;;;5.73;4.27;;;15.80;99.90;;;;;;5055744;28;21017;-81
2023/05/12 07:04:43;;;;;;;4.87;4.47;;;15.70;99.90;;;;;;5056265;28;20517;-77
2023/05/12 07:07:10;;;;;;;7.33;4.20;;;15.70;99.90;;;;;;5056511;28;20443;-79
2023/05/12 07:09:41;;;;;;;7.37;4.60;;;15.50;99.90;;;;;;5052231;28;20505;-80
2023/05/12 07:12:08;;;;;;;5.23;4.47;;;15.60;99.90;;;;;;5055446;28;20460;-81
2023/05/12 07:14:34;;;;;;;4.90;4.40;;;15.50;99.90;;;;;;5051783;28;20487;-80
2023/05/12 07:17:01;;;;;;;4.87;4.47;;;15.50;99.90;;;;;;5055778;28;20494;-81
2023/05/12 07:19:28;;;;;;;7.27;5.80;;;15.50;99.90;;;;;;5055877;28;20525;-79
2023/05/12 07:21:55;;;;;;;4.73;4.33;;;15.50;99.90;;;;;;5055085;28;20549;-80
2023/05/12 07:24:22;;;;;;;7.47;4.70;;;15.60;99.90;;;;;;5056768;28;20533;-81
2023/05/12 07:26:50;;;;;;;5.43;4.80;;;15.60;99.90;;;;;;5056543;28;20461;-78
2023/05/12 07:29:18;;;;;;;4.40;4.00;;;15.60;99.90;;;;;;5069464;28;20515;-79
2023/05/12 07:31:44;;;;;;;6.17;5.13;;;15.60;99.90;;;;;;5053570;28;20626;-79
2023/05/12 07:34:11;;;;;;;6.13;5.23;;;15.70;99.90;;;;;;5067570;28;20457;-80
2023/05/12 07:36:38;;;;;;;5.37;4.53;;;15.70;99.90;;;;;;5068503;28;20866;-81
2023/05/12 07:39:05;;;;;;;5.33;4.20;;;15.60;99.90;;;;;;5052827;28;20479;-80
2023/05/12 07:41:32;;;;;;;9.70;4.23;;;15.60;99.90;;;;;;5052880;28;20458;-82
2023/05/12 07:44:02;;;;;;;6.33;4.73;;;15.90;99.90;;;;;;5054682;28;20993;-80
2023/05/12 07:46:28;;;;;;;6.43;5.53;;;16.00;99.90;;;;;;5052011;28;20444;-81
2023/05/12 07:48:56;;;;;;;5.03;4.40;;;16.10;99.90;;;;;;5047814;28;20480;-80
2023/05/12 07:51:22;;;;;;;5.63;4.40;;;16.30;99.90;;;;;;5054518;28;20547;-81
2023/05/12 07:53:49;;;;;;;5.43;4.27;;;16.40;99.90;;;;;;5062271;28;20474;-78
2023/05/12 07:56:16;;;;;;;4.93;3.87;;;16.50;99.90;;;;;;5054863;28;20455;-79
2023/05/12 07:58:43;;;;;;;4.30;3.90;;;16.60;99.90;;;;;;5060574;28;20480;-80
2023/05/12 08:01:11;;;;;;;3.90;3.50;;;16.70;99.90;;;;;;5054146;28;20469;-80
2023/05/12 08:03:38;;;;;;;4.17;3.73;;;16.90;99.90;;;;;;5057791;28;20486;-79
2023/05/12 08:06:06;;;;;;;4.20;3.80;;;16.90;99.90;;;;;;5063256;28;20989;-82
2023/05/12 08:08:33;;;;;;;4.83;3.93;;;16.90;99.90;;;;;;5043330;28;20477;-80
2023/05/12 08:10:59;;;;;;;7.10;4.60;;;16.80;90.10;;;;;;5055951;28;20454;-81
2023/05/12 08:13:26;;;;;;;4.83;3.27;;;16.80;31.00;;;;;;5052527;28;20457;-80
2023/05/12 08:15:53;;;;;;;3.60;3.20;;;17.00;90.50;;;;;;5047108;28;20454;-80
2023/05/12 08:18:21;;;;;;;3.40;3.00;;;17.30;69.80;;;;;;5047957;28;20505;-81
2023/05/12 08:20:49;;;;;;;4.37;3.97;;;17.40;60.40;;;;;;5047791;28;20548;-81
2023/05/12 08:23:16;;;;;;;6.10;3.03;;;17.60;30.70;;;;;;5050263;28;20456;-80
2023/05/12 08:25:44;;;;;;;4.10;3.47;;;17.70;1.00;;;;;;5055097;28;20460;-79
2023/05/12 08:28:11;;;;;;;5.33;3.90;;;17.90;14.70;;;;;;5054207;28;20485;-80
2023/05/12 08:30:38;;;;;;;4.03;3.63;;;18.00;1.00;;;;;;5053838;28;20935;-81
2023/05/12 08:33:05;;;;;;;3.43;3.13;;;18.30;1.00;;;;;;5043339;28;20461;-81
2023/05/12 08:35:33;;;;;;;3.90;2.87;;;18.40;1.00;;;;;;5050661;28;20473;-81
2023/05/12 08:38:00;;;;;;;4.73;3.00;;;18.70;1.00;;;;;;5050133;28;20578;-80
2023/05/12 08:40:30;;;;;;;3.50;2.80;;;18.70;1.00;;;;;;5048387;28;20463;-79
2023/05/12 08:43:02;;;;;;;3.53;2.80;;;19.10;1.00;;;;;;5057844;28;20459;-81
2023/05/12 08:45:29;;;;;;;3.53;2.57;;;19.10;1.00;;;;;;5053513;28;20459;-80
2023/05/12 08:47:58;;;;;;;2.93;2.63;;;19.40;1.00;;;;;;5050872;28;20476;-80
2023/05/12 08:50:28;;;;;;;3.43;3.13;;;19.10;1.00;;;;;;5044755;28;20449;-81
2023/05/12 08:52:56;;;;;;;4.30;2.70;;;18.90;1.00;;;;;;5051681;28;20459;-81
2023/05/12 08:55:24;;;;;;;4.67;2.70;;;19.00;1.00;;;;;;5045556;28;20486;-81
2023/05/12 08:57:50;;;;;;;3.40;2.60;;;19.00;1.00;;;;;;5044229;28;20861;-82
2023/05/12 09:00:20;;;;;;;3.87;2.57;;;19.10;1.00;;;;;;5051944;28;20460;-83
2023/05/12 09:02:48;;;;;;;2.60;2.10;;;19.40;1.00;;;;;;5039447;28;20539;-81
2023/05/12 09:05:15;;;;;;;4.53;2.70;;;19.60;1.00;;;;;;5057554;28;21003;-81
2023/05/12 09:07:44;;;;;;;3.47;2.93;;;19.90;1.00;;;;;;5053830;28;20455;-81
2023/05/12 09:10:16;;;;;;;3.20;2.80;;;20.20;99.90;;;;;;5057369;28;20465;-82
2023/05/12 09:12:46;;;;;;;2.93;2.60;;;20.10;99.90;;;;;;5044308;28;20464;-80
2023/05/12 09:15:19;;;;;;;4.83;2.57;;;20.20;1.00;;;;;;5056552;28;20443;-81
2023/05/12 09:17:46;;;;;;;3.63;1.93;;;20.30;1.00;;;;;;5044622;28;20496;-82
2023/05/12 09:20:13;;;;;;;2.13;1.90;;;20.40;99.90;;;;;;5037784;28;20463;-80
2023/05/12 09:22:40;;;;;;;4.43;2.47;;;20.50;99.90;;;;;;5047794;28;20449;-82
2023/05/12 09:25:18;;;;;;;2.83;2.43;;;21.20;1.00;;;;;;5073821;28;20549;-81
2023/05/12 09:27:47;;;;;;;2.60;2.27;;;21.70;1.00;;;;;;5063126;28;21055;-82
2023/05/12 09:30:14;;;;;;;4.33;3.00;;;21.50;99.90;;;;;;5057189;28;20462;-80
2023/05/12 09:32:41;;;;;;;3.50;2.30;;;21.20;99.90;;;;;;5056370;28;20944;-83
2023/05/12 09:35:10;;;;;;;4.23;2.30;;;21.40;1.00;;;;;;5063331;28;20928;-82
2023/05/12 09:37:38;;;;;;;3.10;2.30;;;21.60;1.00;;;;;;5056317;28;20467;-79
2023/05/12 09:40:07;;;;;;;2.70;2.40;;;21.50;99.90;;;;;;5050615;28;20473;-81
2023/05/12 09:42:35;;;;;;;2.77;2.30;;;21.40;99.90;;;;;;5055603;28;20459;-83
2023/05/12 09:45:03;;;;;;;4.90;2.80;;;21.70;99.90;;;;;;5046624;28;20459;-80
2023/05/12 09:47:35;;;;;;;4.10;2.87;;;21.70;1.00;;;;;;5066799;28;20450;-83
2023/05/12 09:50:02;;;;;;;5.87;3.90;;;21.80;1.00;;;;;;5072344;28;20457;-80
2023/05/12 09:52:31;;;;;;;3.60;2.47;;;22.20;99.90;;;;;;5054509;28;20462;-83
2023/05/12 09:55:05;;;;;;;5.23;2.10;;;22.40;1.00;;;;;;5056812;28;20455;-82
2023/05/12 09:57:39;;;;;;;4.63;3.33;;;22.40;99.90;;;;;;5055552;28;20534;-82
2023/05/12 10:00:09;;;;;;;4.93;3.23;;;22.60;1.00;;;;;;5058997;28;20459;-83
2023/05/12 10:02:39;;;;;;;3.30;2.30;;;22.30;99.90;;;;;;5057310;28;20986;-82
2023/05/12 10:05:08;;;;;;;3.23;2.30;;;22.30;1.00;;;;;;5053954;28;20515;-82
2023/05/12 10:07:36;;;;;;;5.57;2.40;;;22.30;1.00;;;;;;5059111;28;20455;-83
2023/05/12 10:10:06;;;;;;;3.63;2.53;;;22.10;1.00;;;;;;5065324;28;20470;-82
2023/05/12 10:12:34;;;;;;;4.33;2.10;;;22.20;1.00;;;;;;5056921;28;20474;-82
2023/05/12 10:15:03;;;;;;;4.07;2.50;;;22.10;1.00;;;;;;5054234;28;20466;-82
2023/05/12 10:17:31;;;;;;;3.90;2.57;;;22.30;1.00;;;;;;5062470;28;20555;-83
2023/05/12 10:19:58;;;;;;;4.13;2.23;;;22.40;99.90;;;;;;5059839;28;20478;-82
2023/05/12 10:22:28;;;;;;;4.53;2.40;;;22.90;17.40;;;;;;5061013;28;20462;-81
2023/05/12 10:24:56;;;;;;;4.37;2.83;;;23.10;99.90;;;;;;5061514;28;20454;-81
2023/05/12 10:27:24;;;;;;;4.40;2.63;;;23.40;94.60;;;;;;5074171;28;20461;-82
2023/05/12 10:29:52;;;;;;;3.00;2.20;;;23.20;99.90;;;;;;5081327;28;20453;-82
2023/05/12 10:32:20;;;;;;;4.70;2.13;;;23.20;1.00;;;;;;5063086;28;20451;-82
2023/05/12 10:34:47;;;;;;;5.73;1.90;;;23.20;99.90;;;;;;5059965;28;20563;-83
2023/05/12 10:37:14;;;;;;;3.70;2.53;;;23.10;1.00;;;;;;5060512;28;20486;-80
2023/05/12 10:39:47;;;;;;;3.90;2.40;;;22.70;99.90;;;;;;5060125;28;20479;-82
2023/05/12 10:42:17;;;;;;;7.00;3.60;;;22.40;1.00;;;;;;5059745;28;20523;-79
2023/05/12 10:44:50;;;;;;;3.90;2.63;;;22.40;99.90;;;;;;5068977;28;20462;-81
2023/05/12 10:47:17;;;;;;;4.17;3.13;;;22.30;99.90;;;;;;5058614;28;20501;-80
2023/05/12 10:49:45;;;;;;;3.10;2.60;;;22.20;99.90;;;;;;5061319;28;20541;-82
2023/05/12 10:52:13;;;;;;;4.03;2.17;;;22.10;99.90;;;;;;5059293;28;20452;-82
2023/05/12 10:54:43;;;;;;;4.10;2.70;;;22.00;1.00;;;;;;5058841;28;20539;-82
2023/05/12 10:57:13;;;;;;;4.77;2.80;;;21.90;1.00;;;;;;5060514;28;20968;-81
2023/05/12 10:59:48;;;;;;;4.90;2.60;;;21.90;45.30;;;;;;5063266;28;20482;-80
2023/05/12 11:02:16;;;;;;;3.93;2.30;;;21.70;1.00;;;;;;5074966;28;20972;-79
2023/05/12 11:04:49;;;;;;;5.13;2.10;;;21.80;99.90;;;;;;5058454;28;20578;-81
2023/05/12 11:07:20;;;;;;;3.80;2.83;;;22.00;1.00;;;;;;5070464;28;20509;-82
2023/05/12 11:09:47;;;;;;;3.80;2.37;;;22.30;1.00;;;;;;5059148;28;20468;-81
2023/05/12 11:12:14;;;;;;;3.20;2.30;;;22.20;1.00;;;;;;5073412;28;20451;-83
2023/05/12 11:14:48;;;;;;;4.30;2.80;;;22.40;99.90;;;;;;5078386;28;20459;-79
2023/05/12 11:17:16;;;;;;;5.80;3.13;;;22.50;99.90;;;;;;5057138;28;20470;-82
2023/05/12 11:19:47;;;;;;;5.27;3.13;;;22.40;25.20;;;;;;5050227;28;20490;-83
2023/05/12 11:22:17;;;;;;;4.33;3.20;;;22.40;1.00;;;;;;5062965;28;20450;-81
2023/05/12 11:24:44;;;;;;;3.33;2.63;;;22.30;27.00;;;;;;5077761;28;20527;-82
2023/05/12 11:27:13;;;;;;;4.60;3.17;;;22.60;99.90;;;;;;5065793;28;20738;-78
2023/05/12 11:29:41;;;;;;;3.27;2.47;;;23.00;19.20;;;;;;5059229;28;20562;-82
2023/05/12 11:32:09;;;;;;;3.87;2.80;;;23.40;1.00;;;;;;5059027;28;20460;-83
2023/05/12 11:34:36;;;;;;;3.30;2.50;;;23.70;1.00;;;;;;5072817;28;20466;-81
2023/05/12 11:37:05;;;;;;;3.53;2.67;;;23.90;1.00;;;;;;5058552;28;20483;-83
2023/05/12 11:39:32;;;;;;;4.53;2.43;;;24.40;1.00;;;;;;5056187;28;20499;-79
2023/05/12 11:42:02;;;;;;;3.60;2.00;;;25.20;1.00;;;;;;5057490;28;20451;-81
2023/05/12 11:44:29;;;;;;;4.53;2.00;;;26.00;1.00;;;;;;5059121;28;20453;-81
2023/05/12 11:46:57;;;;;;;3.23;2.17;;;26.70;1.00;;;;;;5060651;28;20463;-80
2023/05/12 11:49:24;;;;;;;4.47;1.90;;;26.70;1.00;;;;;;5056943;28;20467;-84
2023/05/12 11:51:52;;;;;;;3.53;2.60;;;26.90;1.00;;;;;;5055200;28;20551;-80
2023/05/12 11:54:21;;;;;;;4.40;2.40;;;26.40;1.00;;;;;;5058195;28;20481;-81
2023/05/12 11:56:49;;;;;;;4.10;2.63;;;25.80;1.00;;;;;;5064531;28;20459;-80
2023/05/12 11:59:26;;;;;;;4.93;2.50;;;25.60;1.00;;;;;;5070380;28;20492;-81
2023/05/12 12:01:53;;;;;;;5.90;3.63;;;25.60;1.00;;;;;;5054879;28;20451;-82
2023/05/12 12:04:30;;;;;;;5.27;3.63;;;25.30;1.00;;;;;;5057529;28;20539;-79
2023/05/12 12:06:57;;;;;;;5.20;2.97;;;25.10;1.00;;;;;;5061173;28;20950;-81
2023/05/12 12:09:32;;;;;;;4.30;2.80;;;25.40;1.00;;;;;;5071948;28;20527;-80
2023/05/12 12:11:59;;;;;;;3.40;2.57;;;25.50;1.00;;;;;;5054841;28;20450;-80
2023/05/12 12:14:26;;;;;;;5.63;3.23;;;25.60;1.00;;;;;;5074536;28;20467;-77
2023/05/12 12:16:53;;;;;;;3.83;2.53;;;25.10;1.00;;;;;;5063797;28;20487;-82
2023/05/12 12:19:20;;;;;;;4.10;3.00;;;25.00;1.00;;;;;;5055976;28;20483;-82
2023/05/12 12:21:47;;;;;;;4.00;2.87;;;24.50;1.00;;;;;;5057453;28;20462;-81
2023/05/12 12:24:13;;;;;;;3.30;2.67;;;24.60;1.00;;;;;;5054722;28;20539;-79
2023/05/12 12:26:41;;;;;;;5.33;2.80;;;24.70;1.00;;;;;;5057167;28;20452;-80
2023/05/12 12:29:08;;;;;;;3.83;2.80;;;25.20;1.00;;;;;;5051909;28;20565;-81
2023/05/12 12:31:35;;;;;;;3.73;2.80;;;25.70;1.00;;;;;;5063111;28;20470;-81
2023/05/12 12:34:03;;;;;;;4.10;3.43;;;25.80;1.00;;;;;;5055928;28;20456;-81
2023/05/12 12:36:29;;;;;;;4.10;3.27;;;25.90;1.00;;;;;;5054177;28;21215;-81
2023/05/12 12:38:56;;;;;;;5.47;2.70;;;26.00;1.00;;;;;;5055823;28;20487;-81
2023/05/12 12:41:23;;;;;;;3.17;2.60;;;25.90;1.00;;;;;;5057756;28;20523;-82
2023/05/12 12:43:52;;;;;;;3.40;2.57;;;25.50;1.00;;;;;;5056954;28;20520;-81
2023/05/12 12:46:19;;;;;;;4.50;2.90;;;25.30;1.00;;;;;;5056608;28;20460;-80